createdAt,value
2023-04-20T00:02:08.696Z,7.12
2023-04-20T00:07:10.357Z,5.32
2023-04-20T00:12:11.967Z,6.15
2023-04-20T00:17:13.539Z,6.02
2023-04-20T00:22:15.144Z,5.54
2023-04-20T00:27:16.676Z,5.36
2023-04-20T00:32:18.365Z,5.10
2023-04-20T00:37:19.973Z,4.80
2023-04-20T00:42:21.561Z,6.01
2023-04-20T00:47:23.179Z,4.43
2023-04-20T00:52:24.926Z,4.55
2023-04-20T00:57:27.872Z,4.66
2023-04-20T01:02:29.679Z,4.66
2023-04-20T01:07:31.502Z,3.78
2023-04-20T01:12:33.112Z,4.32
2023-04-20T01:17:39.998Z,4.48
2023-04-20T01:22:49.752Z,4.89
2023-04-20T01:27:51.517Z,4.57
2023-04-20T01:32:53.186Z,4.61
2023-04-20T01:37:54.853Z,5.09
2023-04-20T01:42:56.674Z,4.78
2023-04-20T01:47:58.376Z,5.21
2023-04-20T01:53:00.053Z,5.70
2023-04-20T01:58:01.704Z,5.39
2023-04-20T02:03:03.493Z,5.56
2023-04-20T02:08:05.690Z,4.71
2023-04-20T02:13:07.281Z,3.76
2023-04-20T02:18:09.033Z,4.70
2023-04-20T02:23:11.095Z,4.39
2023-04-20T02:28:12.659Z,4.37
2023-04-20T02:33:14.345Z,5.48
2023-04-20T02:38:15.992Z,4.80
2023-04-20T02:43:17.627Z,5.08
2023-04-20T02:48:19.328Z,4.51
2023-04-20T02:53:20.975Z,4.24
2023-04-20T02:58:22.583Z,4.18
2023-04-20T03:03:24.435Z,3.30
2023-04-20T03:08:26.204Z,3.62
2023-04-20T03:13:27.827Z,4.26
2023-04-20T03:18:29.431Z,4.94
2023-04-20T03:23:31.255Z,3.79
2023-04-20T03:28:32.796Z,3.72
2023-04-20T03:33:34.493Z,4.26
2023-04-20T03:38:36.106Z,3.68
2023-04-20T03:43:37.760Z,4.01
2023-04-20T03:48:39.376Z,4.42
2023-04-20T03:53:41.079Z,3.52
2023-04-20T03:58:43.219Z,3.89
2023-04-20T04:03:45.081Z,4.83
2023-04-20T04:08:46.808Z,3.52
2023-04-20T04:13:50.165Z,4.00
2023-04-20T04:18:51.779Z,4.01
2023-04-20T04:23:53.475Z,5.04
2023-04-20T04:28:55.378Z,4.55
2023-04-20T04:33:56.964Z,5.48
2023-04-20T04:38:58.612Z,4.52
2023-04-20T04:44:01.098Z,3.59
2023-04-20T04:49:02.884Z,4.05
2023-04-20T04:54:04.854Z,3.98
2023-04-20T04:59:06.699Z,5.21
2023-04-20T05:05:36.206Z,1.82
2023-04-20T05:10:37.921Z,3.42
2023-04-20T05:15:39.843Z,3.75
2023-04-20T05:20:42.246Z,2.97
2023-04-20T05:25:43.868Z,2.50
2023-04-20T05:30:45.644Z,3.52
2023-04-20T05:35:47.364Z,3.36
2023-04-20T05:40:50.350Z,3.51
2023-04-20T05:45:52.387Z,2.75
2023-04-20T05:50:54.914Z,2.80
2023-04-20T05:55:56.566Z,4.02
2023-04-20T06:00:58.157Z,2.48
2023-04-20T06:05:59.885Z,2.60
2023-04-20T06:11:01.520Z,4.05
2023-04-20T06:16:03.285Z,2.69
2023-04-20T06:21:04.938Z,2.77
2023-04-20T06:26:08.883Z,3.83
2023-04-20T06:31:10.697Z,3.65
2023-04-20T06:36:12.429Z,3.53
2023-04-20T06:41:14.010Z,4.57
2023-04-20T06:46:15.653Z,5.93
2023-04-20T06:51:17.296Z,5.83
2023-04-20T06:56:18.841Z,5.20
2023-04-20T07:01:20.422Z,5.04
2023-04-20T07:06:22.054Z,6.67
2023-04-20T07:11:24.748Z,5.43
2023-04-20T07:16:26.505Z,5.84
2023-04-20T07:21:28.084Z,4.75
2023-04-20T07:26:29.707Z,5.80
2023-04-20T07:31:32.411Z,6.93
2023-04-20T07:36:35.759Z,5.97
2023-04-20T07:41:37.317Z,6.97
2023-04-20T07:46:38.899Z,6.26
2023-04-20T07:51:40.507Z,6.34
2023-04-20T07:56:42.074Z,6.80
2023-04-20T08:01:43.670Z,6.65
2023-04-20T08:06:45.333Z,6.94
2023-04-20T08:11:47.352Z,7.33
2023-04-20T08:16:49.005Z,7.78
2023-04-20T08:21:51.393Z,8.18
2023-04-20T08:26:53.272Z,8.43
2023-04-20T08:31:54.898Z,8.16
2023-04-20T08:36:56.616Z,8.13
2023-04-20T08:41:58.447Z,7.95
2023-04-20T08:47:00.803Z,7.46
2023-04-20T08:52:02.535Z,8.14
2023-04-20T08:57:04.370Z,8.43
2023-04-20T09:02:13.286Z,7.89
2023-04-20T09:07:19.837Z,8.82
2023-04-20T09:12:22.753Z,8.06
2023-04-20T09:17:33.236Z,9.00
2023-04-20T09:22:36.943Z,8.87
2023-04-20T09:27:38.624Z,7.96
2023-04-20T09:32:40.274Z,9.09
2023-04-20T09:37:48.991Z,8.02
2023-04-20T09:42:52.998Z,9.88
2023-04-20T09:47:55.164Z,11.05
2023-04-20T09:52:57.625Z,10.74
2023-04-20T09:58:02.651Z,10.02
2023-04-20T10:03:04.601Z,9.47
2023-04-20T10:08:07.061Z,8.45
2023-04-20T10:13:08.660Z,10.11
2023-04-20T10:18:24.730Z,10.29
2023-04-20T10:23:26.816Z,9.19
2023-04-20T10:28:42.962Z,9.33
2023-04-20T10:33:51.006Z,10.18
2023-04-20T10:38:53.329Z,9.86
2023-04-20T10:43:54.998Z,9.65
2023-04-20T10:49:04.312Z,10.51
2023-04-20T10:54:08.268Z,9.84
2023-04-20T10:59:12.541Z,8.70
2023-04-20T11:06:32.983Z,6.99
2023-04-20T11:11:37.364Z,7.90
2023-04-20T11:16:50.724Z,8.33
2023-04-20T11:21:54.014Z,7.98
2023-04-20T11:26:56.235Z,8.32
2023-04-20T11:31:59.309Z,8.33
2023-04-20T11:37:19.077Z,8.22
2023-04-20T11:42:20.658Z,8.79
2023-04-20T11:47:22.316Z,7.82
2023-04-20T11:52:23.974Z,8.94
2023-04-20T11:57:25.765Z,7.49
2023-04-20T12:02:27.456Z,8.47
2023-04-20T12:07:29.153Z,8.43
2023-04-20T12:12:31.002Z,8.30
2023-04-20T12:17:32.675Z,7.91
2023-04-20T12:22:34.854Z,8.22
2023-04-20T12:27:36.665Z,9.31
2023-04-20T12:32:38.312Z,9.35
2023-04-20T12:37:39.930Z,9.16
2023-04-20T12:42:41.569Z,10.19
2023-04-20T12:47:43.214Z,10.49
2023-04-20T12:52:44.854Z,9.50
2023-04-20T12:57:46.905Z,9.38
2023-04-20T13:02:48.712Z,9.42
2023-04-20T13:07:50.774Z,8.33
2023-04-20T13:12:52.639Z,8.54
2023-04-20T13:17:54.308Z,8.08
2023-04-20T13:23:01.553Z,8.66
2023-04-20T13:28:03.684Z,8.70
2023-04-20T13:33:06.570Z,8.10
2023-04-20T13:38:08.320Z,9.20
2023-04-20T13:43:10.135Z,8.39
2023-04-20T13:48:11.866Z,8.22
2023-04-20T13:53:13.509Z,8.26
2023-04-20T13:58:15.131Z,8.40
2023-04-20T14:03:18.930Z,7.94
2023-04-20T14:08:20.904Z,8.11
2023-04-20T14:13:23.420Z,7.79
2023-04-20T14:18:25.048Z,8.48
2023-04-20T14:23:26.742Z,8.37
2023-04-20T14:28:28.393Z,8.16
2023-04-20T14:33:30.062Z,8.62
2023-04-20T14:38:31.687Z,8.44
2023-04-20T14:43:34.590Z,8.53
2023-04-20T14:48:38.206Z,7.75
2023-04-20T14:53:39.840Z,7.79
2023-04-20T14:58:42.546Z,6.86
2023-04-20T15:03:44.490Z,7.82
2023-04-20T15:08:46.688Z,8.25
2023-04-20T15:13:49.553Z,7.72
2023-04-20T15:18:52.855Z,7.94
2023-04-20T15:23:54.581Z,8.37
2023-04-20T15:28:57.663Z,8.90
2023-04-20T15:34:00.207Z,7.26
2023-04-20T15:39:02.327Z,8.24
2023-04-20T15:44:04.061Z,8.27
2023-04-20T15:49:05.917Z,8.94
2023-04-20T15:54:07.565Z,8.04
2023-04-20T15:59:09.174Z,8.97
2023-04-20T16:04:11.243Z,9.35
2023-04-20T16:09:13.449Z,6.96
2023-04-20T16:14:15.266Z,8.43
2023-04-20T16:19:16.983Z,7.66
2023-04-20T16:24:18.900Z,9.10
2023-04-20T16:29:20.940Z,8.06
2023-04-20T16:34:24.525Z,9.36
2023-04-20T16:39:26.283Z,8.07
2023-04-20T16:44:28.084Z,8.43
2023-04-20T16:49:29.799Z,9.31
2023-04-20T16:54:31.571Z,7.99
2023-04-20T16:59:33.246Z,8.49
2023-04-20T17:04:35.923Z,8.10
2023-04-20T17:09:37.726Z,8.78
2023-04-20T17:14:39.433Z,9.81
2023-04-20T17:19:41.211Z,9.31
2023-04-20T17:24:42.905Z,9.39
2023-04-20T17:29:45.188Z,8.44
2023-04-20T17:34:48.772Z,9.13
2023-04-20T17:39:50.617Z,9.66
2023-04-20T17:44:52.307Z,9.03
2023-04-20T17:49:56.009Z,8.94
2023-04-20T17:54:57.882Z,8.98
2023-04-20T17:59:59.635Z,9.89
2023-04-20T18:05:01.283Z,9.35
2023-04-20T18:10:03.968Z,9.23
2023-04-20T18:15:08.170Z,10.03
2023-04-20T18:20:11.023Z,7.79
2023-04-20T18:25:12.692Z,8.91
2023-04-20T18:30:14.780Z,8.32
2023-04-20T18:35:16.546Z,8.38
2023-04-20T18:40:18.402Z,8.13
2023-04-20T18:45:21.900Z,8.88
2023-04-20T18:50:24.421Z,8.48
2023-04-20T18:55:26.214Z,7.43
2023-04-20T19:00:27.888Z,7.97
2023-04-20T19:05:30.922Z,8.74
2023-04-20T19:10:32.631Z,8.09
2023-04-20T19:15:34.734Z,8.05
2023-04-20T19:20:36.532Z,7.86
2023-04-20T19:25:38.347Z,7.91
2023-04-20T19:30:40.176Z,6.94
2023-04-20T19:35:42.265Z,7.82
2023-04-20T19:40:44.868Z,8.20
2023-04-20T19:45:46.726Z,7.59
2023-04-20T19:50:50.065Z,8.04
2023-04-20T19:55:51.857Z,7.59
2023-04-20T20:00:53.678Z,7.54
2023-04-20T20:05:55.696Z,8.58
2023-04-20T20:10:57.407Z,7.47
2023-04-20T20:15:59.164Z,8.10
2023-04-20T20:21:00.876Z,7.18
2023-04-20T20:26:03.169Z,7.63
2023-04-20T20:31:05.318Z,6.21
2023-04-20T20:36:07.184Z,7.86
2023-04-20T20:41:09.393Z,7.83
2023-04-20T20:46:11.246Z,8.20
2023-04-20T20:51:12.969Z,6.69
2023-04-20T20:56:14.652Z,6.69
2023-04-20T21:01:18.169Z,7.77
2023-04-20T21:06:19.979Z,6.73
2023-04-20T21:11:21.598Z,6.70
2023-04-20T21:16:23.578Z,7.42
2023-04-20T21:21:25.247Z,6.67
2023-04-20T21:26:27.099Z,6.81
2023-04-20T21:31:28.952Z,7.43
2023-04-20T21:36:30.976Z,7.92
2023-04-20T21:41:32.665Z,5.98
2023-04-20T21:46:34.454Z,7.50
2023-04-20T21:51:36.179Z,6.79
2023-04-20T21:56:37.884Z,7.08
2023-04-20T22:01:39.536Z,6.27
2023-04-20T22:06:41.370Z,6.23
2023-04-20T22:11:43.505Z,7.90
2023-04-20T22:16:45.145Z,7.59
2023-04-20T22:21:46.932Z,7.01
2023-04-20T22:26:48.625Z,7.25
2023-04-20T22:31:50.652Z,7.21
2023-04-20T22:36:52.360Z,6.00
2023-04-20T22:41:54.085Z,7.84
2023-04-20T22:46:55.946Z,7.76
2023-04-20T22:51:57.671Z,7.26
2023-04-20T22:56:59.460Z,7.38
2023-04-20T23:02:01.164Z,5.91
2023-04-20T23:07:03.016Z,4.85
2023-04-20T23:12:04.924Z,5.45
2023-04-20T23:17:07.492Z,4.48
2023-04-20T23:22:09.751Z,4.53
2023-04-20T23:27:11.381Z,5.93
2023-04-20T23:32:13.179Z,4.55
2023-04-20T23:37:15.052Z,6.38
2023-04-20T23:42:16.854Z,4.81
2023-04-20T23:47:18.692Z,4.91
2023-04-20T23:52:20.388Z,5.16
2023-04-20T23:57:22.050Z,5.94
